Time,TemperatureF,DewpointF,PressureIn,WindDirection,WindDirectionDegrees,WindSpeedMPH,WindSpeedGustMPH,Humidity,HourlyPrecipIn,Conditions,Clouds,dailyrainin,SoftwareType,DateUTC
2013-10-13 00:07:00,66.7,61.4,29.85,ENE,67,0.0,-999.0,83,-99.99,,,0.00,Acu-Link.com,2013-10-13 04:07:00,
2013-10-13 00:22:00,67.1,61.8,29.86,ENE,67,0.0,-999.0,83,-99.99,,,0.00,Acu-Link.com,2013-10-13 04:22:00,
2013-10-13 00:37:00,67.1,61.8,29.85,ENE,67,0.0,-999.0,83,-99.99,,,0.00,Acu-Link.com,2013-10-13 04:37:00,
2013-10-13 00:52:00,67.5,61.8,29.86,East,90,0.0,-999.0,82,-99.99,,,0.00,Acu-Link.com,2013-10-13 04:52:00,
2013-10-13 01:08:00,67.6,61.6,29.86,NE,45,1.1,-999.0,81,-99.99,,,0.00,Acu-Link.com,2013-10-13 05:08:00,
2013-10-13 01:23:00,67.8,61.7,29.86,NE,45,1.1,-999.0,81,-99.99,,,0.00,Acu-Link.com,2013-10-13 05:23:00,
2013-10-13 01:39:00,68.0,61.9,29.85,West,270,0.0,-999.0,81,-99.99,,,0.00,Acu-Link.com,2013-10-13 05:39:00,
2013-10-13 01:54:00,68.0,61.9,29.86,East,90,0.0,-999.0,81,-99.99,,,0.00,Acu-Link.com,2013-10-13 05:54:00,
2013-10-13 02:09:00,68.0,61.6,29.86,West,270,0.0,-999.0,80,-99.99,,,0.00,Acu-Link.com,2013-10-13 06:09:00,
2013-10-13 02:24:00,68.2,61.8,29.86,NE,45,0.0,-999.0,80,-99.99,,,0.00,Acu-Link.com,2013-10-13 06:24:00,
2013-10-13 02:41:00,68.4,61.6,29.86,NNW,337,2.2,-999.0,79,-99.99,,,0.00,Acu-Link.com,2013-10-13 06:41:00,
2013-10-13 02:56:00,68.4,61.6,29.86,NW,315,0.0,-999.0,79,-99.99,,,0.00,Acu-Link.com,2013-10-13 06:56:00,
2013-10-13 03:12:00,68.4,61.6,29.86,SE,135,0.0,-999.0,79,-99.99,,,0.00,Acu-Link.com,2013-10-13 07:12:00,
2013-10-13 03:28:00,68.4,61.6,29.87,ENE,67,0.0,-999.0,79,-99.99,,,0.00,Acu-Link.com,2013-10-13 07:28:00,
2013-10-13 03:43:00,68.4,61.6,29.86,NNE,22,4.2,-999.0,79,-99.99,,,0.00,Acu-Link.com,2013-10-13 07:43:00,
2013-10-13 03:59:00,68.4,61.6,29.86,ESE,112,0.0,-999.0,79,-99.99,,,0.00,Acu-Link.com,2013-10-13 07:59:00,
2013-10-13 04:14:00,68.2,61.4,29.86,North,0,0.0,-999.0,79,-99.99,,,0.00,Acu-Link.com,2013-10-13 08:14:00,
2013-10-13 04:30:00,68.2,61.4,29.86,SW,225,0.0,-999.0,79,-99.99,,,0.00,Acu-Link.com,2013-10-13 08:30:00,
2013-10-13 04:46:00,68.2,61.4,29.86,East,90,0.0,-999.0,79,-99.99,,,0.00,Acu-Link.com,2013-10-13 08:46:00,
2013-10-13 05:01:00,68.0,61.2,29.87,NE,45,0.0,-999.0,79,-99.99,,,0.00,Acu-Link.com,2013-10-13 09:01:00,
2013-10-13 05:16:00,67.8,61.4,29.87,ENE,67,1.1,-999.0,80,-99.99,,,0.00,Acu-Link.com,2013-10-13 09:16:00,
2013-10-13 05:31:00,67.5,61.1,29.87,East,90,2.2,-999.0,80,-99.99,,,0.00,Acu-Link.com,2013-10-13 09:31:00,
2013-10-13 05:46:00,67.3,61.3,29.87,WNW,292,0.0,-999.0,81,-99.99,,,0.00,Acu-Link.com,2013-10-13 09:46:00,
2013-10-13 06:02:00,67.1,61.1,29.87,NE,45,1.7,-999.0,81,-99.99,,,0.00,Acu-Link.com,2013-10-13 10:02:00,
2013-10-13 06:17:00,66.9,61.2,29.87,WNW,292,0.0,-999.0,82,-99.99,,,0.00,Acu-Link.com,2013-10-13 10:17:00,
2013-10-13 06:32:00,66.7,61.0,29.87,NE,45,0.0,-999.0,82,-99.99,,,0.00,Acu-Link.com,2013-10-13 10:32:00,
2013-10-13 06:47:00,65.8,60.8,29.89,NE,45,2.7,-999.0,84,-99.99,,,0.00,Acu-Link.com,2013-10-13 10:47:00,
2013-10-13 07:02:00,65.7,60.7,29.90,NE,45,1.7,-999.0,84,-99.99,,,0.00,Acu-Link.com,2013-10-13 11:02:00,
2013-10-13 07:17:00,65.5,60.5,29.90,NNW,337,0.0,-999.0,84,-99.99,,,0.00,Acu-Link.com,2013-10-13 11:17:00,
2013-10-13 07:32:00,65.3,60.7,29.90,NE,45,2.7,-999.0,85,-99.99,,,0.00,Acu-Link.com,2013-10-13 11:32:00,
2013-10-13 07:47:00,65.3,60.7,29.90,North,0,2.7,-999.0,85,-99.99,,,0.00,Acu-Link.com,2013-10-13 11:47:00,
2013-10-13 08:02:00,65.5,60.9,29.90,ESE,112,0.0,-999.0,85,-99.99,,,0.00,Acu-Link.com,2013-10-13 12:02:00,
2013-10-13 08:17:00,65.7,61.1,29.91,NE,45,1.1,-999.0,85,-99.99,,,0.00,Acu-Link.com,2013-10-13 12:17:00,
2013-10-13 08:33:00,65.8,61.2,29.92,East,90,1.7,-999.0,85,-99.99,,,0.00,Acu-Link.com,2013-10-13 12:33:00,
2013-10-13 08:48:00,66.2,61.6,29.93,ENE,67,1.7,-999.0,85,-99.99,,,0.00,Acu-Link.com,2013-10-13 12:48:00,
2013-10-13 09:03:00,66.6,61.9,29.93,NE,45,1.1,-999.0,85,-99.99,,,0.00,Acu-Link.com,2013-10-13 13:03:00,
2013-10-13 09:18:00,67.1,62.1,29.94,NNE,22,1.7,-999.0,84,-99.99,,,0.00,Acu-Link.com,2013-10-13 13:18:00,
2013-10-13 09:33:00,67.6,62.2,29.95,ENE,67,1.7,-999.0,83,-99.99,,,0.00,Acu-Link.com,2013-10-13 13:33:00,
2013-10-13 09:48:00,68.7,63.0,29.95,SSE,157,0.0,-999.0,82,-99.99,,,0.00,Acu-Link.com,2013-10-13 13:48:00,
2013-10-13 10:03:00,69.4,63.0,29.95,East,90,1.7,-999.0,80,-99.99,,,0.00,Acu-Link.com,2013-10-13 14:03:00,
2013-10-13 10:18:00,69.8,63.0,29.95,NE,45,3.2,-999.0,79,-99.99,,,0.00,Acu-Link.com,2013-10-13 14:18:00,
2013-10-13 10:33:00,70.7,63.5,29.96,NNE,22,2.2,-999.0,78,-99.99,,,0.00,Acu-Link.com,2013-10-13 14:33:00,
2013-10-13 10:49:00,71.8,63.8,29.97,NNE,22,1.1,-999.0,76,-99.99,,,0.00,Acu-Link.com,2013-10-13 14:49:00,
2013-10-13 11:04:00,72.0,64.0,29.96,NE,45,4.2,-999.0,76,-99.99,,,0.00,Acu-Link.com,2013-10-13 15:04:00,
2013-10-13 11:19:00,72.5,64.1,29.96,SE,135,1.1,-999.0,75,-99.99,,,0.00,Acu-Link.com,2013-10-13 15:19:00,
2013-10-13 11:34:00,73.6,64.4,29.95,East,90,5.3,-999.0,73,-99.99,,,0.00,Acu-Link.com,2013-10-13 15:34:00,
2013-10-13 11:49:00,74.1,64.9,29.96,SE,135,1.1,-999.0,73,-99.99,,,0.00,Acu-Link.com,2013-10-13 15:49:00,
2013-10-13 12:04:00,74.8,64.8,29.95,ENE,67,3.7,-999.0,71,-99.99,,,0.00,Acu-Link.com,2013-10-13 16:04:00,
2013-10-13 12:19:00,75.7,64.8,29.95,NNE,22,2.2,-999.0,69,-99.99,,,0.00,Acu-Link.com,2013-10-13 16:19:00,
2013-10-13 12:34:00,75.6,65.1,29.95,South,180,1.7,-999.0,70,-99.99,,,0.00,Acu-Link.com,2013-10-13 16:34:00,
2013-10-13 12:49:00,75.9,65.0,29.93,NNE,22,3.2,-999.0,69,-99.99,,,0.00,Acu-Link.com,2013-10-13 16:49:00,
2013-10-13 13:05:00,75.6,65.1,29.93,WNW,292,2.2,-999.0,70,-99.99,,,0.00,Acu-Link.com,2013-10-13 17:05:00,
2013-10-13 13:20:00,76.6,64.8,29.93,NNE,22,4.7,-999.0,67,-99.99,,,0.00,Acu-Link.com,2013-10-13 17:20:00,
2013-10-13 13:35:00,76.5,65.1,29.92,NE,45,2.7,-999.0,68,-99.99,,,0.00,Acu-Link.com,2013-10-13 17:35:00,
2013-10-13 13:50:00,76.6,65.2,29.91,East,90,5.3,-999.0,68,-99.99,,,0.00,Acu-Link.com,2013-10-13 17:50:00,
2013-10-13 14:05:00,76.5,64.7,29.91,East,90,0.0,-999.0,67,-99.99,,,0.00,Acu-Link.com,2013-10-13 18:05:00,
2013-10-13 14:20:00,76.3,64.9,29.91,NE,45,3.7,-999.0,68,-99.99,,,0.00,Acu-Link.com,2013-10-13 18:20:00,
2013-10-13 14:35:00,75.4,65.7,29.90,NE,45,2.7,-999.0,72,-99.99,,,0.00,Acu-Link.com,2013-10-13 18:35:00,
2013-10-13 14:50:00,75.9,65.4,29.90,East,90,1.7,-999.0,70,-99.99,,,0.00,Acu-Link.com,2013-10-13 18:50:00,
2013-10-13 15:05:00,76.1,65.2,29.90,NE,45,2.2,-999.0,69,-99.99,,,0.00,Acu-Link.com,2013-10-13 19:05:00,
2013-10-13 15:21:00,75.9,65.4,29.90,East,90,0.0,-999.0,70,-99.99,,,0.00,Acu-Link.com,2013-10-13 19:21:00,
2013-10-13 15:36:00,76.1,65.2,29.90,NNE,22,1.1,-999.0,69,-99.99,,,0.00,Acu-Link.com,2013-10-13 19:36:00,
2013-10-13 15:51:00,76.1,65.6,29.90,East,90,2.2,-999.0,70,-99.99,,,0.00,Acu-Link.com,2013-10-13 19:51:00,
2013-10-13 16:06:00,75.6,65.5,29.90,NNE,22,3.7,-999.0,71,-99.99,,,0.00,Acu-Link.com,2013-10-13 20:06:00,
2013-10-13 16:21:00,75.4,65.3,29.89,NNE,22,2.2,-999.0,71,-99.99,,,0.00,Acu-Link.com,2013-10-13 20:21:00,
2013-10-13 16:36:00,75.7,65.2,29.89,SSW,202,1.7,-999.0,70,-99.99,,,0.00,Acu-Link.com,2013-10-13 20:36:00,
2013-10-13 16:51:00,75.2,65.1,29.89,ESE,112,2.2,-999.0,71,-99.99,,,0.00,Acu-Link.com,2013-10-13 20:51:00,
2013-10-13 17:06:00,74.3,64.7,29.89,NNW,337,1.1,-999.0,72,-99.99,,,0.00,Acu-Link.com,2013-10-13 21:06:00,
2013-10-13 17:21:00,74.3,64.7,29.90,ESE,112,1.1,-999.0,72,-99.99,,,0.00,Acu-Link.com,2013-10-13 21:21:00,
2013-10-13 17:36:00,73.9,64.7,29.90,NE,45,1.7,-999.0,73,-99.99,,,0.00,Acu-Link.com,2013-10-13 21:36:00,
2013-10-13 17:52:00,73.8,64.2,29.90,NNW,337,3.2,-999.0,72,-99.99,,,0.00,Acu-Link.com,2013-10-13 21:52:00,
2013-10-13 18:07:00,72.9,63.7,29.91,ESE,112,0.0,-999.0,73,-99.99,,,0.00,Acu-Link.com,2013-10-13 22:07:00,
2013-10-13 18:22:00,72.5,63.7,29.91,SW,225,0.0,-999.0,74,-99.99,,,0.00,Acu-Link.com,2013-10-13 22:22:00,
2013-10-13 18:37:00,72.1,63.7,29.91,East,90,1.7,-999.0,75,-99.99,,,0.00,Acu-Link.com,2013-10-13 22:37:00,
2013-10-13 18:52:00,71.6,63.6,29.92,ESE,112,0.0,-999.0,76,-99.99,,,0.00,Acu-Link.com,2013-10-13 22:52:00,
2013-10-13 19:07:00,71.1,63.5,29.92,ESE,112,1.7,-999.0,77,-99.99,,,0.00,Acu-Link.com,2013-10-13 23:07:00,
2013-10-13 19:22:00,70.9,63.3,29.93,ESE,112,1.7,-999.0,77,-99.99,,,0.00,Acu-Link.com,2013-10-13 23:22:00,
2013-10-13 19:37:00,70.7,63.1,29.93,SE,135,0.0,-999.0,77,-99.99,,,0.00,Acu-Link.com,2013-10-13 23:37:00,
2013-10-13 19:52:00,70.3,63.1,29.94,East,90,1.7,-999.0,78,-99.99,,,0.00,Acu-Link.com,2013-10-13 23:52:00,
2013-10-13 20:08:00,70.2,63.0,29.95,North,0,3.7,-999.0,78,-99.99,,,0.00,Acu-Link.com,2013-10-14 00:08:00,
2013-10-13 20:23:00,70.0,63.2,29.94,NE,45,0.0,-999.0,79,-99.99,,,0.00,Acu-Link.com,2013-10-14 00:23:00,
2013-10-13 20:38:00,69.4,63.0,29.95,ESE,112,0.0,-999.0,80,-99.99,,,0.00,Acu-Link.com,2013-10-14 00:38:00,
2013-10-13 20:53:00,69.3,62.9,29.94,ENE,67,1.7,-999.0,80,-99.99,,,0.00,Acu-Link.com,2013-10-14 00:53:00,
2013-10-13 21:08:00,68.9,62.8,29.94,NNE,22,1.1,-999.0,81,-99.99,,,0.00,Acu-Link.com,2013-10-14 01:08:00,
2013-10-13 21:23:00,68.4,62.3,29.94,West,270,0.0,-999.0,81,-99.99,,,0.00,Acu-Link.com,2013-10-14 01:23:00,
2013-10-13 21:38:00,67.8,62.1,29.95,East,90,0.0,-999.0,82,-99.99,,,0.00,Acu-Link.com,2013-10-14 01:38:00,
2013-10-13 21:53:00,67.3,62.0,29.94,ENE,67,0.0,-999.0,83,-99.99,,,0.00,Acu-Link.com,2013-10-14 01:53:00,
2013-10-13 22:08:00,66.7,61.7,29.95,ENE,67,0.0,-999.0,84,-99.99,,,0.00,Acu-Link.com,2013-10-14 02:08:00,
2013-10-13 22:24:00,66.6,61.9,29.95,ESE,112,0.0,-999.0,85,-99.99,,,0.00,Acu-Link.com,2013-10-14 02:24:00,
2013-10-13 22:39:00,66.6,61.9,29.95,SSE,157,0.0,-999.0,85,-99.99,,,0.00,Acu-Link.com,2013-10-14 02:39:00,
2013-10-13 22:54:00,66.6,61.9,29.96,ENE,67,0.0,-999.0,85,-99.99,,,0.00,Acu-Link.com,2013-10-14 02:54:00,
2013-10-13 23:09:00,66.6,61.9,29.95,NNE,22,0.0,-999.0,85,-99.99,,,0.00,Acu-Link.com,2013-10-14 03:09:00,
2013-10-13 23:24:00,66.6,61.9,29.96,North,0,1.1,-999.0,85,-99.99,,,0.00,Acu-Link.com,2013-10-14 03:24:00,
2013-10-13 23:39:00,66.4,61.7,29.94,ENE,67,0.0,-999.0,85,-99.99,,,0.00,Acu-Link.com,2013-10-14 03:39:00,
2013-10-13 23:54:00,66.2,61.6,29.95,NNW,337,0.0,-999.0,85,-99.99,,,0.00,Acu-Link.com,2013-10-14 03:54:00,